createdAt,value
2018-09-21T00:00:16.438Z,26.80
2018-09-21T00:02:45.314Z,26.80
2018-09-21T00:05:14.834Z,26.80
2018-09-21T00:07:43.739Z,26.80
2018-09-21T00:10:12.654Z,26.70
2018-09-21T00:12:42.563Z,26.70
2018-09-21T00:15:11.996Z,26.60
2018-09-21T00:17:40.863Z,26.60
2018-09-21T00:20:09.747Z,26.60
2018-09-21T00:22:38.642Z,26.60
2018-09-21T00:25:07.872Z,26.60
2018-09-21T00:27:37.063Z,26.60
2018-09-21T00:30:06.314Z,26.60
2018-09-21T00:32:35.167Z,26.50
2018-09-21T00:35:04.362Z,26.50
2018-09-21T00:37:33.284Z,26.50
2018-09-21T00:40:02.188Z,26.50
2018-09-21T00:42:31.094Z,26.50
2018-09-21T00:45:00.045Z,26.60
2018-09-21T00:47:29.117Z,26.60
2018-09-21T00:49:58.350Z,26.60
2018-09-21T00:52:27.215Z,26.60
2018-09-21T00:54:56.138Z,26.70
2018-09-21T00:57:25.368Z,26.70
2018-09-21T00:59:54.370Z,26.70
2018-09-21T01:02:23.603Z,26.80
2018-09-21T01:04:52.502Z,26.80
2018-09-21T01:07:21.467Z,26.80
2018-09-21T01:09:50.357Z,26.80
2018-09-21T01:12:19.715Z,26.80
2018-09-21T01:14:48.623Z,26.80
2018-09-21T01:17:17.815Z,26.70
2018-09-21T01:19:46.777Z,26.70
2018-09-21T01:22:15.687Z,26.70
2018-09-21T01:24:44.615Z,26.60
2018-09-21T01:27:15.187Z,26.60
2018-09-21T01:29:45.094Z,26.50
2018-09-21T01:32:14.092Z,26.50
2018-09-21T01:34:43.655Z,26.50
2018-09-21T01:37:12.571Z,26.40
2018-09-21T01:39:41.442Z,26.30
2018-09-21T01:42:10.603Z,26.30
2018-09-21T01:44:40.238Z,26.30
2018-09-21T01:47:09.375Z,26.20
2018-09-21T01:49:38.598Z,26.20
2018-09-21T01:52:07.559Z,26.20
2018-09-21T01:54:36.775Z,26.20
2018-09-21T01:57:05.660Z,26.10
2018-09-21T01:59:34.541Z,26.10
2018-09-21T02:02:03.431Z,26.10
2018-09-21T02:04:39.498Z,26.00
2018-09-21T02:07:09.903Z,26.10
2018-09-21T02:09:39.350Z,26.10
2018-09-21T02:12:08.455Z,26.10
2018-09-21T02:14:37.346Z,26.00
2018-09-21T02:17:06.277Z,26.00
2018-09-21T02:19:35.396Z,26.00
2018-09-21T02:22:04.287Z,26.00
2018-09-21T02:24:33.183Z,25.90
2018-09-21T02:27:02.051Z,25.80
2018-09-21T02:29:30.946Z,25.70
2018-09-21T02:31:59.832Z,25.60
2018-09-21T02:34:28.740Z,25.60
2018-09-21T02:36:58.185Z,25.60
2018-09-21T02:39:27.088Z,25.60
2018-09-21T02:41:55.971Z,25.70
2018-09-21T02:44:24.860Z,25.70
2018-09-21T02:46:54.088Z,25.70
2018-09-21T02:49:23.030Z,25.60
2018-09-21T02:51:51.936Z,25.50
2018-09-21T02:54:20.819Z,25.50
2018-09-21T02:56:50.531Z,25.50
2018-09-21T02:59:19.433Z,25.40
2018-09-21T03:01:48.336Z,25.40
2018-09-21T03:04:17.835Z,25.30
2018-09-21T03:06:47.017Z,25.30
2018-09-21T03:09:15.928Z,25.30
2018-09-21T03:11:44.842Z,25.40
2018-09-21T03:14:13.723Z,25.40
2018-09-21T03:16:44.020Z,25.40
2018-09-21T03:19:13.247Z,25.40
2018-09-21T03:21:42.699Z,25.40
2018-09-21T03:24:12.159Z,25.40
2018-09-21T03:26:41.304Z,25.40
2018-09-21T03:29:10.220Z,25.40
2018-09-21T03:31:39.089Z,25.40
2018-09-21T03:34:07.949Z,25.30
2018-09-21T03:36:36.850Z,25.30
2018-09-21T03:39:07.520Z,25.30
2018-09-21T03:41:36.476Z,25.30
2018-09-21T03:44:05.362Z,25.20
2018-09-21T03:46:34.301Z,25.20
2018-09-21T03:49:03.247Z,25.20
2018-09-21T03:51:32.174Z,25.20
2018-09-21T03:54:01.364Z,25.10
2018-09-21T03:56:30.254Z,25.00
2018-09-21T03:58:59.150Z,25.00
2018-09-21T04:01:28.088Z,25.00
2018-09-21T04:03:58.172Z,25.10
2018-09-21T04:06:27.064Z,25.10
2018-09-21T04:08:55.990Z,25.10
2018-09-21T04:11:25.138Z,25.10
2018-09-21T04:13:54.030Z,25.10
2018-09-21T04:16:23.273Z,25.10
2018-09-21T04:18:52.389Z,25.10
2018-09-21T04:21:21.294Z,25.00
2018-09-21T04:23:50.227Z,24.90
2018-09-21T04:26:19.141Z,24.90
2018-09-21T04:28:48.295Z,24.90
2018-09-21T04:31:17.340Z,24.90
2018-09-21T04:33:46.275Z,24.90
2018-09-21T04:36:15.279Z,24.80
2018-09-21T04:38:44.359Z,24.80
2018-09-21T04:41:13.830Z,24.80
2018-09-21T04:43:42.760Z,24.80
2018-09-21T04:46:11.659Z,24.80
2018-09-21T04:48:46.187Z,24.70
2018-09-21T04:51:15.731Z,24.70
2018-09-21T04:53:44.849Z,24.70
2018-09-21T04:56:14.627Z,24.60
2018-09-21T04:58:43.826Z,24.50
2018-09-21T05:01:13.039Z,24.60
2018-09-21T05:03:41.940Z,24.60
2018-09-21T05:06:10.819Z,24.60
2018-09-21T05:08:39.712Z,24.60
2018-09-21T05:11:08.675Z,24.60
2018-09-21T05:13:37.847Z,24.60
2018-09-21T05:16:07.372Z,24.50
2018-09-21T05:18:36.268Z,24.50
2018-09-21T05:21:05.159Z,24.60
2018-09-21T05:23:34.592Z,24.60
2018-09-21T05:26:03.482Z,24.50
2018-09-21T05:28:32.576Z,24.60
2018-09-21T05:31:01.491Z,24.60
2018-09-21T05:33:30.514Z,24.70
2018-09-21T05:35:59.803Z,24.70
2018-09-21T05:38:28.915Z,24.80
2018-09-21T05:40:57.860Z,24.80
2018-09-21T05:43:27.038Z,24.90
2018-09-21T05:45:56.223Z,25.00
2018-09-21T05:48:25.442Z,24.90
2018-09-21T05:50:54.498Z,25.00
2018-09-21T05:53:23.463Z,25.00
2018-09-21T05:55:52.399Z,25.00
2018-09-21T05:58:21.395Z,25.00
2018-09-21T06:00:50.288Z,25.10
2018-09-21T06:03:19.389Z,25.10
2018-09-21T06:05:48.300Z,25.00
2018-09-21T06:08:17.313Z,25.10
2018-09-21T06:10:46.299Z,25.20
2018-09-21T06:13:16.023Z,25.20
2018-09-21T06:15:45.186Z,25.30
2018-09-21T06:18:14.071Z,25.50
2018-09-21T06:20:43.475Z,25.60
2018-09-21T06:23:12.620Z,25.80
2018-09-21T06:25:41.548Z,25.90
2018-09-21T06:28:10.464Z,26.10
2018-09-21T06:30:39.376Z,26.20
2018-09-21T06:33:08.511Z,26.40
2018-09-21T06:35:37.732Z,26.50
2018-09-21T06:38:06.643Z,26.70
2018-09-21T06:40:36.031Z,26.80
2018-09-21T06:43:04.931Z,27.00
2018-09-21T06:45:34.132Z,27.10
2018-09-21T06:48:03.599Z,27.40
2018-09-21T06:50:32.735Z,27.40
2018-09-21T06:53:01.635Z,27.50
2018-09-21T06:55:30.619Z,27.70
2018-09-21T06:57:59.703Z,27.80
2018-09-21T07:00:28.685Z,28.00
2018-09-21T07:02:57.691Z,27.80
2018-09-21T07:05:26.902Z,27.20
2018-09-21T07:07:56.025Z,26.60
2018-09-21T07:10:24.949Z,26.30
2018-09-21T07:12:53.984Z,26.30
2018-09-21T07:15:23.022Z,26.50
2018-09-21T07:17:53.054Z,26.60
2018-09-21T07:20:22.329Z,26.50
2018-09-21T07:22:52.191Z,26.30
2018-09-21T07:25:21.378Z,25.90
2018-09-21T07:27:50.315Z,25.60
2018-09-21T07:30:19.538Z,25.40
2018-09-21T07:32:48.489Z,25.30
2018-09-21T07:35:17.413Z,25.30
2018-09-21T07:37:46.327Z,25.30
2018-09-21T07:40:15.283Z,25.20
2018-09-21T07:42:44.462Z,25.40
2018-09-21T07:45:13.579Z,25.40
2018-09-21T07:47:42.620Z,25.40
2018-09-21T07:50:11.935Z,25.30
2018-09-21T07:52:41.033Z,25.40
2018-09-21T07:55:10.184Z,25.70
2018-09-21T07:57:39.206Z,26.10
2018-09-21T08:00:08.415Z,26.60
2018-09-21T08:02:37.331Z,27.00
2018-09-21T08:05:06.394Z,27.30
2018-09-21T08:07:35.277Z,27.70
2018-09-21T08:10:04.255Z,28.20
2018-09-21T08:12:33.419Z,28.40
2018-09-21T08:15:02.678Z,28.90
2018-09-21T08:17:31.819Z,29.20
2018-09-21T08:20:00.973Z,29.30
2018-09-21T08:22:30.229Z,29.40
2018-09-21T08:24:59.267Z,29.80
2018-09-21T08:27:28.783Z,30.30
2018-09-21T08:29:57.756Z,30.70
2018-09-21T08:32:26.945Z,31.30
2018-09-21T08:34:56.163Z,31.40
2018-09-21T08:37:25.607Z,31.90
2018-09-21T08:39:54.425Z,31.70
2018-09-21T08:42:23.399Z,31.60
2018-09-21T08:44:59.619Z,31.70
2018-09-21T08:47:28.523Z,31.50
2018-09-21T08:49:57.548Z,31.60
2018-09-21T08:52:26.616Z,31.40
2018-09-21T08:54:58.801Z,30.80
2018-09-21T08:57:27.695Z,30.70
2018-09-21T08:59:56.892Z,30.60
2018-09-21T09:02:25.780Z,30.70
2018-09-21T09:04:56.026Z,30.50
2018-09-21T09:07:24.980Z,30.40
2018-09-21T09:09:54.069Z,30.50
2018-09-21T09:12:24.755Z,30.60
2018-09-21T09:14:54.254Z,30.60
2018-09-21T09:17:23.397Z,30.40
2018-09-21T09:19:52.947Z,30.20
2018-09-21T09:22:22.202Z,30.60
2018-09-21T09:24:51.705Z,31.00
2018-09-21T09:27:20.586Z,31.40
2018-09-21T09:29:49.473Z,31.80
2018-09-21T09:32:18.401Z,32.10
2018-09-21T09:34:47.327Z,32.60
2018-09-21T09:37:16.192Z,33.00
2018-09-21T09:39:45.087Z,33.30
2018-09-21T09:42:14.249Z,33.50
2018-09-21T09:44:43.476Z,33.60
2018-09-21T09:47:12.342Z,33.90
2018-09-21T09:49:41.293Z,34.10
2018-09-21T09:52:10.185Z,34.30
2018-09-21T09:54:39.471Z,34.40
2018-09-21T09:57:08.357Z,34.50
2018-09-21T09:59:37.395Z,34.70
2018-09-21T10:02:06.295Z,34.70
2018-09-21T10:04:35.220Z,34.70
2018-09-21T10:07:04.105Z,34.50
2018-09-21T10:09:33.013Z,34.50
2018-09-21T10:12:01.916Z,34.50
2018-09-21T10:14:31.100Z,34.60
2018-09-21T10:17:00.623Z,34.60
2018-09-21T10:19:30.137Z,34.60
2018-09-21T10:21:59.035Z,34.50
2018-09-21T10:24:27.967Z,34.40
2018-09-21T10:26:57.174Z,34.40
2018-09-21T10:29:26.511Z,34.50
2018-09-21T10:31:55.416Z,34.50
2018-09-21T10:34:24.368Z,34.50
2018-09-21T10:36:53.567Z,34.50
2018-09-21T10:39:22.595Z,34.40
2018-09-21T10:41:52.043Z,34.20
2018-09-21T10:44:21.068Z,34.00
2018-09-21T10:46:49.948Z,34.00
2018-09-21T10:49:19.114Z,33.90
2018-09-21T10:51:48.012Z,33.80
2018-09-21T10:54:17.573Z,34.00
2018-09-21T10:56:46.942Z,34.20
2018-09-21T10:59:16.051Z,34.20
2018-09-21T11:01:44.978Z,34.30
2018-09-21T11:04:13.895Z,34.40
2018-09-21T11:06:42.774Z,34.40
2018-09-21T11:09:12.191Z,34.30
2018-09-21T11:11:41.423Z,34.30
2018-09-21T11:14:10.533Z,34.20
2018-09-21T11:16:39.446Z,34.20
2018-09-21T11:19:08.328Z,34.10
2018-09-21T11:21:41.570Z,34.10
2018-09-21T11:24:10.498Z,34.10
2018-09-21T11:26:39.394Z,34.10
2018-09-21T11:29:08.499Z,34.30
2018-09-21T11:31:37.678Z,34.40
2018-09-21T11:34:06.647Z,34.70
2018-09-21T11:36:36.386Z,34.70
2018-09-21T11:39:07.906Z,34.70
2018-09-21T11:41:36.869Z,34.70
2018-09-21T11:44:05.996Z,34.80
2018-09-21T11:46:34.933Z,35.00
2018-09-21T11:49:03.926Z,35.10
2018-09-21T11:51:32.807Z,35.20
2018-09-21T11:54:01.712Z,35.30
2018-09-21T11:56:30.905Z,35.40
2018-09-21T11:58:59.840Z,35.40
2018-09-21T12:01:29.209Z,35.50
2018-09-21T12:03:58.140Z,35.70
2018-09-21T12:06:27.002Z,35.80
2018-09-21T12:08:56.400Z,36.00
2018-09-21T12:11:25.611Z,36.20
2018-09-21T12:13:54.835Z,36.20
2018-09-21T12:16:23.756Z,36.10
2018-09-21T12:18:52.686Z,35.90
2018-09-21T12:21:21.629Z,35.70
2018-09-21T12:23:50.565Z,35.50
2018-09-21T12:26:19.512Z,35.50
2018-09-21T12:28:49.031Z,35.30
2018-09-21T12:31:18.135Z,35.20
2018-09-21T12:33:47.087Z,35.10
2018-09-21T12:36:16.015Z,34.80
2018-09-21T12:38:44.987Z,34.60
2018-09-21T12:41:14.090Z,34.40
2018-09-21T12:43:43.077Z,34.40
2018-09-21T12:46:15.551Z,34.50
2018-09-21T12:48:44.783Z,34.50
2018-09-21T12:51:13.668Z,34.50
2018-09-21T12:53:42.601Z,34.30
2018-09-21T12:56:11.551Z,34.20
2018-09-21T12:58:40.535Z,34.00
2018-09-21T13:01:09.403Z,33.80
2018-09-21T13:03:38.301Z,33.60
2018-09-21T13:06:08.154Z,33.50
2018-09-21T13:08:37.038Z,33.40
2018-09-21T13:11:05.994Z,33.30
2018-09-21T13:13:34.914Z,33.20
2018-09-21T13:16:04.023Z,33.10
2018-09-21T13:18:33.134Z,33.00
2018-09-21T13:21:02.004Z,32.70
2018-09-21T13:23:31.059Z,32.50
2018-09-21T13:26:00.395Z,32.20
2018-09-21T13:28:29.404Z,32.10
2018-09-21T13:30:58.327Z,32.00
2018-09-21T13:33:27.243Z,32.00
2018-09-21T13:35:56.140Z,32.10
2018-09-21T13:38:25.564Z,32.10
2018-09-21T13:40:54.752Z,32.10
2018-09-21T13:43:23.708Z,32.10
2018-09-21T13:45:52.627Z,32.10
2018-09-21T13:48:21.649Z,32.10
2018-09-21T13:50:50.913Z,32.10
2018-09-21T13:53:19.812Z,32.00
2018-09-21T13:55:49.553Z,32.00
2018-09-21T13:58:18.714Z,32.00
2018-09-21T14:00:47.641Z,32.00
2018-09-21T14:03:16.573Z,31.90
2018-09-21T14:05:45.504Z,31.90
2018-09-21T14:08:14.791Z,31.90
2018-09-21T14:10:44.295Z,31.80
2018-09-21T14:13:13.472Z,31.80
2018-09-21T14:15:42.447Z,31.80
2018-09-21T14:18:11.363Z,31.70
2018-09-21T14:20:40.248Z,31.70
2018-09-21T14:23:09.368Z,31.70
2018-09-21T14:25:38.308Z,31.60
2018-09-21T14:28:07.240Z,31.50
2018-09-21T14:30:36.415Z,31.50
2018-09-21T14:33:06.298Z,31.50
2018-09-21T14:35:35.191Z,31.40
2018-09-21T14:38:04.253Z,31.40
2018-09-21T14:40:33.204Z,31.40
2018-09-21T14:43:02.756Z,31.30
2018-09-21T14:45:32.447Z,31.30
2018-09-21T14:48:01.622Z,31.30
2018-09-21T14:50:30.645Z,31.20
2018-09-21T14:52:59.518Z,31.20
2018-09-21T14:55:28.463Z,31.10
2018-09-21T14:57:57.404Z,31.10
2018-09-21T15:00:26.270Z,31.00
2018-09-21T15:02:55.184Z,31.00
2018-09-21T15:05:24.072Z,30.90
2018-09-21T15:07:53.175Z,30.90
2018-09-21T15:10:22.100Z,30.80
2018-09-21T15:12:50.983Z,30.80
2018-09-21T15:15:19.991Z,30.80
2018-09-21T15:17:48.899Z,30.80
2018-09-21T15:20:17.775Z,30.80
2018-09-21T15:22:47.231Z,30.80
2018-09-21T15:25:16.329Z,30.80
2018-09-21T15:27:45.236Z,30.80
2018-09-21T15:30:14.322Z,30.80
2018-09-21T15:32:43.204Z,30.70
2018-09-21T15:35:12.196Z,30.70
2018-09-21T15:37:41.314Z,30.70
2018-09-21T15:40:10.215Z,30.70
2018-09-21T15:42:39.133Z,30.60
2018-09-21T15:45:08.022Z,30.60
2018-09-21T15:47:36.953Z,30.60
2018-09-21T15:50:05.915Z,30.60
2018-09-21T15:52:34.835Z,30.50
2018-09-21T15:55:03.731Z,30.50
2018-09-21T15:57:32.930Z,30.50
2018-09-21T16:00:01.843Z,30.50
2018-09-21T16:02:30.707Z,30.40
2018-09-21T16:04:59.606Z,30.40
2018-09-21T16:07:28.475Z,30.40
2018-09-21T16:09:57.690Z,30.40
2018-09-21T16:12:26.719Z,30.30
2018-09-21T16:14:55.842Z,30.30
2018-09-21T16:17:24.775Z,30.30
2018-09-21T16:19:53.654Z,30.20
2018-09-21T16:22:22.515Z,30.20
2018-09-21T16:24:51.754Z,30.20
2018-09-21T16:27:20.944Z,30.10
2018-09-21T16:29:49.823Z,30.10
2018-09-21T16:32:19.002Z,30.10
2018-09-21T16:34:47.942Z,30.00
2018-09-21T16:37:16.820Z,30.00
2018-09-21T16:39:45.676Z,30.00
2018-09-21T16:42:14.707Z,29.90
2018-09-21T16:44:43.700Z,29.90
2018-09-21T16:47:12.559Z,29.90
2018-09-21T16:49:41.467Z,29.80
2018-09-21T16:52:10.391Z,29.80
2018-09-21T16:54:39.299Z,29.80
2018-09-21T16:57:08.434Z,29.70
2018-09-21T16:59:37.341Z,29.70
2018-09-21T17:02:06.234Z,29.60
2018-09-21T17:04:35.515Z,29.40
2018-09-21T17:07:04.704Z,29.10
2018-09-21T17:09:33.861Z,28.80
2018-09-21T17:12:02.736Z,28.60
2018-09-21T17:14:31.703Z,28.40
2018-09-21T17:17:00.583Z,28.30
2018-09-21T17:19:29.456Z,28.10
2018-09-21T17:21:58.708Z,27.90
2018-09-21T17:24:27.596Z,27.80
2018-09-21T17:26:56.527Z,27.80
2018-09-21T17:29:25.395Z,27.60
2018-09-21T17:31:54.354Z,27.50
2018-09-21T17:34:23.448Z,27.40
2018-09-21T17:36:52.840Z,27.00
2018-09-21T17:39:21.936Z,26.10
2018-09-21T17:41:50.816Z,25.60
2018-09-21T17:44:20.035Z,25.40
2018-09-21T17:46:49.223Z,25.20
2018-09-21T17:49:18.971Z,25.00
2018-09-21T17:51:48.674Z,24.50
2018-09-21T17:54:18.046Z,24.30
2018-09-21T17:56:47.499Z,24.20
2018-09-21T17:59:16.961Z,24.20
2018-09-21T18:01:46.298Z,23.60
2018-09-21T18:04:15.864Z,23.00
2018-09-21T18:06:46.811Z,22.90
2018-09-21T18:09:16.693Z,22.80
2018-09-21T18:11:46.334Z,22.60
2018-09-21T18:14:15.794Z,22.40
2018-09-21T18:16:45.383Z,22.00
2018-09-21T18:19:15.168Z,21.50
2018-09-21T18:21:44.780Z,21.40
2018-09-21T18:24:14.511Z,21.60
2018-09-21T18:26:43.927Z,21.60
2018-09-21T18:29:13.367Z,21.80
2018-09-21T18:31:43.252Z,22.00
2018-09-21T18:34:12.978Z,22.10
2018-09-21T18:36:42.352Z,21.90
2018-09-21T18:39:11.982Z,21.70
2018-09-21T18:41:41.494Z,21.70
2018-09-21T18:44:11.105Z,21.70
2018-09-21T18:46:40.477Z,21.40
2018-09-21T18:49:10.325Z,21.40
2018-09-21T18:51:39.673Z,21.30
2018-09-21T18:54:09.324Z,21.30
2018-09-21T18:56:38.800Z,21.40
2018-09-21T18:59:08.220Z,21.40
2018-09-21T19:01:37.749Z,21.30
2018-09-21T19:04:07.224Z,21.20
2018-09-21T19:06:36.899Z,20.90
2018-09-21T19:09:08.491Z,20.00
2018-09-21T19:11:37.979Z,19.40
2018-09-21T19:14:07.421Z,18.80
2018-09-21T19:16:36.455Z,18.70
2018-09-21T19:19:05.685Z,18.70
2018-09-21T19:21:35.891Z,18.80
2018-09-21T19:24:06.149Z,18.70
2018-09-21T19:26:35.541Z,18.70
2018-09-21T19:29:04.398Z,18.70
2018-09-21T19:31:33.316Z,18.60
2018-09-21T19:34:02.339Z,18.80
2018-09-21T19:36:31.289Z,18.90
2018-09-21T19:39:01.260Z,19.10
2018-09-21T19:41:30.407Z,19.40
2018-09-21T19:43:59.299Z,19.70
2018-09-21T19:46:28.286Z,19.80
2018-09-21T19:48:59.243Z,20.00
2018-09-21T19:51:30.319Z,20.00
2018-09-21T19:54:00.857Z,20.10
2018-09-21T19:56:30.771Z,20.30
2018-09-21T19:59:00.489Z,20.50
2018-09-21T20:01:29.641Z,20.60
2018-09-21T20:03:58.762Z,20.70
2018-09-21T20:06:29.083Z,20.80
2018-09-21T20:08:58.716Z,21.10
2018-09-21T20:11:28.778Z,21.30
2018-09-21T20:13:58.637Z,21.60
2018-09-21T20:16:28.045Z,21.70
2018-09-21T20:18:57.828Z,21.90
2018-09-21T20:21:27.363Z,21.80
2018-09-21T20:23:56.649Z,21.90
2018-09-21T20:26:26.474Z,21.80
2018-09-21T20:28:57.498Z,21.70
2018-09-21T20:31:32.651Z,21.60
2018-09-21T20:34:02.486Z,21.40
2018-09-21T20:36:31.566Z,21.10
2018-09-21T20:39:01.632Z,20.90
2018-09-21T20:41:31.492Z,20.90
2018-09-21T20:44:01.302Z,20.90
2018-09-21T20:46:31.964Z,21.00
2018-09-21T20:49:02.162Z,20.90
2018-09-21T20:51:31.848Z,21.10
2018-09-21T20:54:01.607Z,21.00
2018-09-21T20:56:30.950Z,20.90
2018-09-21T20:59:01.068Z,20.80
2018-09-21T21:01:30.890Z,20.40
2018-09-21T21:04:00.731Z,20.10
2018-09-21T21:06:30.341Z,20.00
2018-09-21T21:08:59.696Z,19.50
2018-09-21T21:11:30.388Z,19.50
2018-09-21T21:13:59.856Z,19.40
2018-09-21T21:16:30.958Z,19.50
2018-09-21T21:19:00.809Z,19.70
2018-09-21T21:21:29.926Z,19.90
2018-09-21T21:23:58.816Z,20.10
2018-09-21T21:26:27.687Z,20.20
2018-09-21T21:28:56.638Z,20.30
2018-09-21T21:31:25.527Z,20.40
2018-09-21T21:33:54.423Z,20.40
2018-09-21T21:36:23.351Z,20.50
2018-09-21T21:38:52.350Z,20.40
2018-09-21T21:41:22.115Z,20.40
2018-09-21T21:43:51.674Z,20.20
2018-09-21T21:46:20.777Z,20.10
2018-09-21T21:48:49.713Z,20.10
2018-09-21T21:51:20.127Z,20.00
2018-09-21T21:53:49.047Z,20.10
2018-09-21T21:56:18.035Z,20.10
2018-09-21T21:58:47.692Z,20.10
2018-09-21T22:01:22.620Z,20.00
2018-09-21T22:03:53.246Z,19.80
2018-09-21T22:06:22.360Z,19.40
2018-09-21T22:08:51.587Z,19.20
2018-09-21T22:11:26.257Z,19.20
2018-09-21T22:14:01.114Z,19.40
2018-09-21T22:16:30.086Z,19.50
2018-09-21T22:18:58.967Z,19.30
2018-09-21T22:21:27.940Z,19.20
2018-09-21T22:23:56.800Z,19.30
2018-09-21T22:26:26.762Z,19.30
2018-09-21T22:28:56.747Z,19.30
2018-09-21T22:31:25.654Z,19.00
2018-09-21T22:33:54.956Z,18.90
2018-09-21T22:36:24.259Z,19.00
2018-09-21T22:38:53.133Z,19.00
2018-09-21T22:41:22.021Z,18.90
2018-09-21T22:43:51.427Z,19.30
2018-09-21T22:46:20.307Z,19.80
2018-09-21T22:48:49.638Z,20.10
2018-09-21T22:51:19.147Z,20.50
2018-09-21T22:53:48.019Z,20.80
2018-09-21T22:56:17.188Z,21.00
2018-09-21T22:58:46.055Z,21.20
2018-09-21T23:01:14.937Z,21.30
2018-09-21T23:03:43.816Z,21.50
2018-09-21T23:06:12.990Z,21.60
2018-09-21T23:08:41.846Z,21.70
2018-09-21T23:11:10.710Z,21.80
2018-09-21T23:16:14.802Z,21.90
2018-09-21T23:18:44.050Z,22.00
2018-09-21T23:21:13.287Z,22.10
2018-09-21T23:23:42.197Z,22.10
2018-09-21T23:26:11.120Z,22.20
2018-09-21T23:28:40.005Z,22.20
2018-09-21T23:31:09.295Z,22.30
2018-09-21T23:33:38.161Z,22.30
2018-09-21T23:36:07.323Z,22.40
2018-09-21T23:38:36.210Z,22.30
2018-09-21T23:41:05.379Z,22.20
2018-09-21T23:43:34.328Z,22.30
2018-09-21T23:46:03.536Z,22.30
2018-09-21T23:48:32.423Z,22.40
2018-09-21T23:51:01.523Z,22.40
2018-09-21T23:53:30.416Z,22.40
2018-09-21T23:56:01.567Z,22.40
2018-09-21T23:58:30.455Z,22.40
